Impacts TAF Board
For situational awareness. Not to be used for flight planning purposes.
IDs:

KMCB - McComb/Lewis Fld, MS, US

Issued at 1720 UTC 02 Oct 2022
Updated at 1855 UTC 02 Oct 2022
Potential Impact None Slight Moderate High
Time1753Z 02/19Z 02/20Z 02/21Z 02/22Z 02/23Z 03/00Z 03/01Z 03/02Z 03/03Z 03/04Z 03/05Z 03/06Z 03/07Z>>
Type OBS PRVL PRVL PRVL PRVL PRVL PRVL PRVL PRVL PRVL PRVL PRVL PRVL PRVL
VIS 10 >6 >6 >6 >6 >6 >6 >6 >6 >6 >6 >6 >6 >6
CIG -- -- -- -- -- -- -- -- -- -- -- -- -- --
Cover CLR SKC SKC SKC SKC SKC SKC FEW FEW FEW FEW FEW FEW FEW
FltCat VFR VFR VFR VFR VFR VFR VFR VFR VFR VFR VFR VFR VFR VFR
WX -- -- -- -- -- -- -- -- -- -- -- -- -- --
WDir VRB 360 360 360 360 360 360 VRB VRB VRB VRB VRB VRB VRB
WSpd 5 8 8 8 8 8 8 3 3 3 3 3 3 3
WGst -- -- -- -- -- -- -- -- -- -- -- -- -- --
WSHgt -- -- -- -- -- -- -- -- -- -- -- -- -- --
WSDir -- -- -- -- -- -- -- -- -- -- -- -- -- --
WSSpd -- -- -- -- -- -- -- -- -- -- -- -- -- --
R16/34
XWnd VRB 3 3 3 3 3 3 VRB VRB VRB VRB VRB VRB VRB
HWnd VRB -7 -7 -7 -7 -7 -7 VRB VRB VRB VRB VRB VRB VRB
Raw TAF
KMCB 021720Z 0218/0318 36008KT P6SM SKC
  FM030100 VRB03KT P6SM FEW250


Raw METAR
KMCB 021753Z AUTO VRB05KT 10SM CLR 27/08 A3010 RMK AO2 SLP190 T02670078 10267 20133 58006
KMCB 021653Z AUTO 00000KT 10SM CLR 25/08 A3012 RMK AO2 SLP196 T02500083
KMCB 021553Z AUTO 00000KT 10SM CLR 23/08 A3013 RMK AO2 SLP199 T02330083

METAR Board
Radar Display
Forecast Discussion
For situational awareness. Not to be used for flight planning purposes.